sensor_id;sensor_type;location;lat;lon;timestamp;P1;durP1;ratioP1;P2;durP2;ratioP2
18623;SDS011;9441;51.420;7.036;2024-03-17T00:01:01;7.23;;;3.90;;
18623;SDS011;9441;51.420;7.036;2024-03-17T00:02:02;10.47;;;4.00;;
18623;SDS011;9441;51.420;7.036;2024-03-17T00:03:03;9.70;;;3.50;;
18623;SDS011;9441;51.420;7.036;2024-03-17T00:04:07;5.67;;;3.93;;
18623;SDS011;9441;51.420;7.036;2024-03-17T00:05:09;7.40;;;4.20;;
18623;SDS011;9441;51.420;7.036;2024-03-17T00:06:10;15.13;;;4.90;;
18623;SDS011;9441;51.420;7.036;2024-03-17T00:07:12;11.63;;;4.17;;
18623;SDS011;9441;51.420;7.036;2024-03-17T00:08:13;11.50;;;4.37;;
18623;SDS011;9441;51.420;7.036;2024-03-17T00:09:15;10.50;;;4.83;;
18623;SDS011;9441;51.420;7.036;2024-03-17T00:10:16;10.40;;;4.80;;
18623;SDS011;9441;51.420;7.036;2024-03-17T00:11:18;6.50;;;4.07;;
18623;SDS011;9441;51.420;7.036;2024-03-17T00:12:19;10.03;;;4.10;;
18623;SDS011;9441;51.420;7.036;2024-03-17T00:13:21;7.73;;;4.27;;
18623;SDS011;9441;51.420;7.036;2024-03-17T00:14:23;9.80;;;4.27;;
18623;SDS011;9441;51.420;7.036;2024-03-17T00:15:24;10.87;;;4.47;;
18623;SDS011;9441;51.420;7.036;2024-03-17T00:16:25;7.03;;;4.10;;
18623;SDS011;9441;51.420;7.036;2024-03-17T00:17:26;10.40;;;4.17;;
18623;SDS011;9441;51.420;7.036;2024-03-17T00:18:28;8.13;;;3.90;;
18623;SDS011;9441;51.420;7.036;2024-03-17T00:19:30;8.87;;;4.07;;
18623;SDS011;9441;51.420;7.036;2024-03-17T00:20:32;9.57;;;4.37;;
18623;SDS011;9441;51.420;7.036;2024-03-17T00:21:34;14.20;;;4.90;;
18623;SDS011;9441;51.420;7.036;2024-03-17T00:22:36;9.83;;;4.30;;
18623;SDS011;9441;51.420;7.036;2024-03-17T00:23:39;10.53;;;4.10;;
18623;SDS011;9441;51.420;7.036;2024-03-17T00:24:40;8.40;;;4.43;;
18623;SDS011;9441;51.420;7.036;2024-03-17T00:25:45;8.67;;;4.50;;
18623;SDS011;9441;51.420;7.036;2024-03-17T00:26:47;10.83;;;4.50;;
18623;SDS011;9441;51.420;7.036;2024-03-17T00:27:48;7.43;;;4.10;;
18623;SDS011;9441;51.420;7.036;2024-03-17T00:28:51;9.50;;;4.90;;
18623;SDS011;9441;51.420;7.036;2024-03-17T00:29:52;10.43;;;4.53;;
18623;SDS011;9441;51.420;7.036;2024-03-17T00:30:53;9.57;;;4.50;;
18623;SDS011;9441;51.420;7.036;2024-03-17T00:31:54;16.43;;;4.93;;
18623;SDS011;9441;51.420;7.036;2024-03-17T00:32:57;9.47;;;4.30;;
18623;SDS011;9441;51.420;7.036;2024-03-17T00:33:59;9.40;;;4.37;;
18623;SDS011;9441;51.420;7.036;2024-03-17T00:35:02;11.23;;;4.93;;
18623;SDS011;9441;51.420;7.036;2024-03-17T00:36:05;10.40;;;4.47;;
18623;SDS011;9441;51.420;7.036;2024-03-17T00:37:06;8.47;;;4.30;;
18623;SDS011;9441;51.420;7.036;2024-03-17T00:38:08;11.17;;;4.30;;
18623;SDS011;9441;51.420;7.036;2024-03-17T00:39:11;8.97;;;4.20;;
18623;SDS011;9441;51.420;7.036;2024-03-17T00:40:12;9.23;;;4.57;;
18623;SDS011;9441;51.420;7.036;2024-03-17T00:41:14;8.30;;;4.20;;
18623;SDS011;9441;51.420;7.036;2024-03-17T00:42:16;12.13;;;4.77;;
18623;SDS011;9441;51.420;7.036;2024-03-17T00:43:17;10.90;;;4.70;;
18623;SDS011;9441;51.420;7.036;2024-03-17T00:44:18;10.40;;;4.27;;
18623;SDS011;9441;51.420;7.036;2024-03-17T00:45:19;10.77;;;4.30;;
18623;SDS011;9441;51.420;7.036;2024-03-17T00:46:21;9.00;;;4.37;;
18623;SDS011;9441;51.420;7.036;2024-03-17T00:47:22;7.37;;;4.37;;
18623;SDS011;9441;51.420;7.036;2024-03-17T00:48:23;6.90;;;4.10;;
18623;SDS011;9441;51.420;7.036;2024-03-17T00:49:24;7.07;;;4.13;;
18623;SDS011;9441;51.420;7.036;2024-03-17T00:50:28;11.20;;;4.10;;
18623;SDS011;9441;51.420;7.036;2024-03-17T00:51:29;6.80;;;4.40;;
18623;SDS011;9441;51.420;7.036;2024-03-17T00:52:30;8.60;;;4.40;;
18623;SDS011;9441;51.420;7.036;2024-03-17T00:53:31;8.50;;;4.30;;
18623;SDS011;9441;51.420;7.036;2024-03-17T00:54:33;8.30;;;4.23;;
18623;SDS011;9441;51.420;7.036;2024-03-17T00:55:34;9.23;;;4.20;;
18623;SDS011;9441;51.420;7.036;2024-03-17T00:56:35;8.90;;;4.57;;
18623;SDS011;9441;51.420;7.036;2024-03-17T00:57:37;14.00;;;4.60;;
18623;SDS011;9441;51.420;7.036;2024-03-17T00:58:39;7.87;;;3.93;;
18623;SDS011;9441;51.420;7.036;2024-03-17T00:59:40;8.57;;;4.13;;
18623;SDS011;9441;51.420;7.036;2024-03-17T01:00:43;8.17;;;4.53;;
18623;SDS011;9441;51.420;7.036;2024-03-17T01:01:44;11.27;;;4.37;;
18623;SDS011;9441;51.420;7.036;2024-03-17T01:02:45;12.40;;;4.50;;
18623;SDS011;9441;51.420;7.036;2024-03-17T01:03:46;10.20;;;4.33;;
18623;SDS011;9441;51.420;7.036;2024-03-17T01:04:48;9.13;;;4.10;;
18623;SDS011;9441;51.420;7.036;2024-03-17T01:05:50;9.97;;;4.37;;
18623;SDS011;9441;51.420;7.036;2024-03-17T01:06:52;10.17;;;4.10;;
18623;SDS011;9441;51.420;7.036;2024-03-17T01:07:54;7.70;;;4.27;;
18623;SDS011;9441;51.420;7.036;2024-03-17T01:08:56;13.27;;;4.50;;
18623;SDS011;9441;51.420;7.036;2024-03-17T01:09:57;10.40;;;4.27;;
18623;SDS011;9441;51.420;7.036;2024-03-17T01:10:59;8.67;;;4.13;;
18623;SDS011;9441;51.420;7.036;2024-03-17T01:12:00;9.07;;;4.50;;
18623;SDS011;9441;51.420;7.036;2024-03-17T01:13:01;10.17;;;4.50;;
18623;SDS011;9441;51.420;7.036;2024-03-17T01:14:02;10.13;;;4.10;;
18623;SDS011;9441;51.420;7.036;2024-03-17T01:15:04;14.67;;;4.50;;
18623;SDS011;9441;51.420;7.036;2024-03-17T01:16:06;12.60;;;4.67;;
18623;SDS011;9441;51.420;7.036;2024-03-17T01:17:07;11.00;;;4.40;;
18623;SDS011;9441;51.420;7.036;2024-03-17T01:18:09;13.83;;;4.70;;
18623;SDS011;9441;51.420;7.036;2024-03-17T01:19:10;10.50;;;4.60;;
18623;SDS011;9441;51.420;7.036;2024-03-17T01:20:11;8.50;;;4.37;;
18623;SDS011;9441;51.420;7.036;2024-03-17T01:21:13;9.27;;;4.60;;
18623;SDS011;9441;51.420;7.036;2024-03-17T01:22:15;8.07;;;4.50;;
18623;SDS011;9441;51.420;7.036;2024-03-17T01:23:17;11.50;;;4.63;;
18623;SDS011;9441;51.420;7.036;2024-03-17T01:24:18;11.20;;;4.50;;
18623;SDS011;9441;51.420;7.036;2024-03-17T01:25:21;10.43;;;4.47;;
18623;SDS011;9441;51.420;7.036;2024-03-17T01:26:22;11.93;;;4.53;;
18623;SDS011;9441;51.420;7.036;2024-03-17T01:27:24;7.93;;;4.27;;
18623;SDS011;9441;51.420;7.036;2024-03-17T01:28:26;9.57;;;4.70;;
18623;SDS011;9441;51.420;7.036;2024-03-17T01:29:27;7.07;;;4.20;;
18623;SDS011;9441;51.420;7.036;2024-03-17T01:30:28;14.27;;;4.67;;
18623;SDS011;9441;51.420;7.036;2024-03-17T01:31:30;10.40;;;4.60;;
18623;SDS011;9441;51.420;7.036;2024-03-17T01:32:31;8.77;;;4.00;;
18623;SDS011;9441;51.420;7.036;2024-03-17T01:33:32;7.53;;;4.27;;
18623;SDS011;9441;51.420;7.036;2024-03-17T01:34:34;13.93;;;4.40;;
18623;SDS011;9441;51.420;7.036;2024-03-17T01:35:36;10.23;;;4.50;;
18623;SDS011;9441;51.420;7.036;2024-03-17T01:36:38;12.90;;;4.50;;
18623;SDS011;9441;51.420;7.036;2024-03-17T01:37:39;9.60;;;4.37;;
18623;SDS011;9441;51.420;7.036;2024-03-17T01:38:41;10.83;;;4.50;;
18623;SDS011;9441;51.420;7.036;2024-03-17T01:39:42;12.00;;;4.03;;
18623;SDS011;9441;51.420;7.036;2024-03-17T01:40:43;10.40;;;4.50;;
18623;SDS011;9441;51.420;7.036;2024-03-17T01:41:45;9.63;;;4.47;;
18623;SDS011;9441;51.420;7.036;2024-03-17T01:42:46;10.80;;;4.30;;
18623;SDS011;9441;51.420;7.036;2024-03-17T01:43:47;8.93;;;4.20;;
18623;SDS011;9441;51.420;7.036;2024-03-17T01:44:49;14.77;;;4.23;;
18623;SDS011;9441;51.420;7.036;2024-03-17T01:45:51;6.03;;;3.77;;
18623;SDS011;9441;51.420;7.036;2024-03-17T01:46:52;12.70;;;4.53;;
18623;SDS011;9441;51.420;7.036;2024-03-17T01:47:54;13.00;;;4.50;;
18623;SDS011;9441;51.420;7.036;2024-03-17T01:48:58;9.83;;;4.03;;
18623;SDS011;9441;51.420;7.036;2024-03-17T01:49:59;12.50;;;4.70;;
18623;SDS011;9441;51.420;7.036;2024-03-17T01:51:00;11.20;;;4.70;;
18623;SDS011;9441;51.420;7.036;2024-03-17T01:52:04;11.10;;;4.80;;
18623;SDS011;9441;51.420;7.036;2024-03-17T01:53:06;11.40;;;4.47;;
18623;SDS011;9441;51.420;7.036;2024-03-17T01:54:10;12.27;;;4.40;;
18623;SDS011;9441;51.420;7.036;2024-03-17T01:55:11;8.77;;;4.13;;
18623;SDS011;9441;51.420;7.036;2024-03-17T01:56:12;10.10;;;4.67;;
18623;SDS011;9441;51.420;7.036;2024-03-17T01:57:16;7.87;;;4.10;;
18623;SDS011;9441;51.420;7.036;2024-03-17T01:58:17;8.03;;;4.20;;
18623;SDS011;9441;51.420;7.036;2024-03-17T01:59:20;10.07;;;4.93;;
18623;SDS011;9441;51.420;7.036;2024-03-17T02:00:23;14.93;;;4.77;;
18623;SDS011;9441;51.420;7.036;2024-03-17T02:01:25;10.17;;;4.53;;
18623;SDS011;9441;51.420;7.036;2024-03-17T02:02:26;9.53;;;4.53;;
18623;SDS011;9441;51.420;7.036;2024-03-17T02:03:27;10.07;;;4.43;;
18623;SDS011;9441;51.420;7.036;2024-03-17T02:04:29;6.97;;;4.40;;
18623;SDS011;9441;51.420;7.036;2024-03-17T02:05:30;11.60;;;4.47;;
18623;SDS011;9441;51.420;7.036;2024-03-17T02:06:31;8.70;;;4.37;;
18623;SDS011;9441;51.420;7.036;2024-03-17T02:07:34;7.13;;;4.30;;
18623;SDS011;9441;51.420;7.036;2024-03-17T02:09:53;12.03;;;4.70;;
18623;SDS011;9441;51.420;7.036;2024-03-17T02:10:54;8.20;;;4.47;;
18623;SDS011;9441;51.420;7.036;2024-03-17T02:11:56;8.23;;;4.67;;
18623;SDS011;9441;51.420;7.036;2024-03-17T02:12:57;7.90;;;4.57;;
18623;SDS011;9441;51.420;7.036;2024-03-17T02:13:59;10.20;;;4.10;;
18623;SDS011;9441;51.420;7.036;2024-03-17T02:15:02;13.17;;;4.97;;
18623;SDS011;9441;51.420;7.036;2024-03-17T02:16:05;11.53;;;4.37;;
18623;SDS011;9441;51.420;7.036;2024-03-17T02:17:06;8.20;;;4.37;;
18623;SDS011;9441;51.420;7.036;2024-03-17T02:18:07;9.30;;;4.53;;
18623;SDS011;9441;51.420;7.036;2024-03-17T02:19:09;11.40;;;4.67;;
18623;SDS011;9441;51.420;7.036;2024-03-17T02:20:10;12.37;;;4.73;;
18623;SDS011;9441;51.420;7.036;2024-03-17T02:21:12;9.90;;;4.13;;
18623;SDS011;9441;51.420;7.036;2024-03-17T02:22:14;6.70;;;4.40;;
18623;SDS011;9441;51.420;7.036;2024-03-17T02:23:17;12.40;;;4.40;;
18623;SDS011;9441;51.420;7.036;2024-03-17T02:24:19;14.30;;;4.70;;
18623;SDS011;9441;51.420;7.036;2024-03-17T02:25:20;12.37;;;4.60;;
18623;SDS011;9441;51.420;7.036;2024-03-17T02:26:22;10.97;;;4.50;;
18623;SDS011;9441;51.420;7.036;2024-03-17T02:27:23;12.73;;;4.77;;
18623;SDS011;9441;51.420;7.036;2024-03-17T02:28:24;7.67;;;4.20;;
18623;SDS011;9441;51.420;7.036;2024-03-17T02:29:25;9.47;;;4.30;;
18623;SDS011;9441;51.420;7.036;2024-03-17T02:30:27;8.13;;;4.30;;
18623;SDS011;9441;51.420;7.036;2024-03-17T02:31:28;10.20;;;4.50;;
18623;SDS011;9441;51.420;7.036;2024-03-17T02:32:29;10.07;;;4.27;;
18623;SDS011;9441;51.420;7.036;2024-03-17T02:33:30;8.83;;;4.40;;
18623;SDS011;9441;51.420;7.036;2024-03-17T02:34:32;11.47;;;5.07;;
18623;SDS011;9441;51.420;7.036;2024-03-17T02:35:34;9.57;;;4.60;;
18623;SDS011;9441;51.420;7.036;2024-03-17T02:36:35;9.17;;;4.70;;
18623;SDS011;9441;51.420;7.036;2024-03-17T02:37:38;7.90;;;4.43;;
18623;SDS011;9441;51.420;7.036;2024-03-17T02:38:40;12.00;;;4.53;;
18623;SDS011;9441;51.420;7.036;2024-03-17T02:40:01;13.53;;;4.70;;
18623;SDS011;9441;51.420;7.036;2024-03-17T02:41:05;9.80;;;4.50;;
18623;SDS011;9441;51.420;7.036;2024-03-17T02:42:07;8.37;;;4.40;;
18623;SDS011;9441;51.420;7.036;2024-03-17T02:43:10;11.93;;;4.97;;
18623;SDS011;9441;51.420;7.036;2024-03-17T02:44:11;11.70;;;4.63;;
18623;SDS011;9441;51.420;7.036;2024-03-17T02:45:12;9.57;;;4.63;;
18623;SDS011;9441;51.420;7.036;2024-03-17T02:46:15;10.73;;;4.33;;
18623;SDS011;9441;51.420;7.036;2024-03-17T02:47:18;11.43;;;4.73;;
18623;SDS011;9441;51.420;7.036;2024-03-17T02:48:20;8.37;;;4.60;;
18623;SDS011;9441;51.420;7.036;2024-03-17T02:49:22;10.97;;;4.60;;
18623;SDS011;9441;51.420;7.036;2024-03-17T02:50:24;11.37;;;4.43;;
18623;SDS011;9441;51.420;7.036;2024-03-17T02:51:25;7.23;;;4.20;;
18623;SDS011;9441;51.420;7.036;2024-03-17T02:52:28;7.63;;;4.23;;
18623;SDS011;9441;51.420;7.036;2024-03-17T02:53:30;9.70;;;4.43;;
18623;SDS011;9441;51.420;7.036;2024-03-17T02:54:31;9.03;;;4.60;;
18623;SDS011;9441;51.420;7.036;2024-03-17T02:55:35;7.70;;;4.20;;
18623;SDS011;9441;51.420;7.036;2024-03-17T02:56:36;8.40;;;4.43;;
18623;SDS011;9441;51.420;7.036;2024-03-17T02:57:38;11.30;;;4.83;;
18623;SDS011;9441;51.420;7.036;2024-03-17T02:58:40;9.97;;;4.40;;
18623;SDS011;9441;51.420;7.036;2024-03-17T02:59:43;14.90;;;4.47;;
18623;SDS011;9441;51.420;7.036;2024-03-17T03:00:45;8.80;;;4.30;;
18623;SDS011;9441;51.420;7.036;2024-03-17T03:01:47;10.23;;;4.73;;
18623;SDS011;9441;51.420;7.036;2024-03-17T03:02:48;13.17;;;4.30;;
18623;SDS011;9441;51.420;7.036;2024-03-17T03:03:50;9.03;;;4.17;;
18623;SDS011;9441;51.420;7.036;2024-03-17T03:04:51;8.67;;;4.70;;
18623;SDS011;9441;51.420;7.036;2024-03-17T03:05:53;8.60;;;4.50;;
18623;SDS011;9441;51.420;7.036;2024-03-17T03:06:57;7.07;;;4.20;;
18623;SDS011;9441;51.420;7.036;2024-03-17T03:07:58;9.73;;;4.83;;
18623;SDS011;9441;51.420;7.036;2024-03-17T03:09:01;9.90;;;4.70;;
18623;SDS011;9441;51.420;7.036;2024-03-17T03:10:03;10.57;;;4.37;;
18623;SDS011;9441;51.420;7.036;2024-03-17T03:11:05;11.10;;;4.33;;
18623;SDS011;9441;51.420;7.036;2024-03-17T03:12:10;7.27;;;4.53;;
18623;SDS011;9441;51.420;7.036;2024-03-17T03:13:12;10.93;;;4.70;;
18623;SDS011;9441;51.420;7.036;2024-03-17T03:14:13;16.27;;;4.97;;
18623;SDS011;9441;51.420;7.036;2024-03-17T03:15:14;9.20;;;5.00;;
18623;SDS011;9441;51.420;7.036;2024-03-17T03:16:16;12.73;;;4.80;;
18623;SDS011;9441;51.420;7.036;2024-03-17T03:17:18;13.50;;;5.30;;
18623;SDS011;9441;51.420;7.036;2024-03-17T03:18:20;11.73;;;5.13;;
18623;SDS011;9441;51.420;7.036;2024-03-17T03:19:22;13.57;;;5.50;;
18623;SDS011;9441;51.420;7.036;2024-03-17T03:20:23;15.50;;;5.83;;
18623;SDS011;9441;51.420;7.036;2024-03-17T03:21:25;15.90;;;5.43;;
18623;SDS011;9441;51.420;7.036;2024-03-17T03:22:26;10.90;;;5.30;;
18623;SDS011;9441;51.420;7.036;2024-03-17T03:23:28;11.27;;;5.63;;
18623;SDS011;9441;51.420;7.036;2024-03-17T03:24:31;10.60;;;5.73;;
18623;SDS011;9441;51.420;7.036;2024-03-17T03:25:32;14.60;;;5.90;;
18623;SDS011;9441;51.420;7.036;2024-03-17T03:26:34;15.27;;;5.70;;
18623;SDS011;9441;51.420;7.036;2024-03-17T03:27:35;11.77;;;5.87;;
18623;SDS011;9441;51.420;7.036;2024-03-17T03:28:39;13.27;;;6.50;;
18623;SDS011;9441;51.420;7.036;2024-03-17T03:29:40;15.93;;;6.57;;
18623;SDS011;9441;51.420;7.036;2024-03-17T03:30:42;17.00;;;5.87;;
18623;SDS011;9441;51.420;7.036;2024-03-17T03:31:43;14.70;;;6.40;;
18623;SDS011;9441;51.420;7.036;2024-03-17T03:32:45;14.97;;;6.60;;
18623;SDS011;9441;51.420;7.036;2024-03-17T03:33:46;13.37;;;6.57;;
18623;SDS011;9441;51.420;7.036;2024-03-17T03:34:48;16.07;;;7.60;;
18623;SDS011;9441;51.420;7.036;2024-03-17T03:35:50;15.03;;;6.87;;
18623;SDS011;9441;51.420;7.036;2024-03-17T03:36:51;21.60;;;7.10;;
18623;SDS011;9441;51.420;7.036;2024-03-17T03:37:53;13.70;;;6.40;;
18623;SDS011;9441;51.420;7.036;2024-03-17T03:38:54;17.43;;;6.70;;
18623;SDS011;9441;51.420;7.036;2024-03-17T03:39:58;15.33;;;6.40;;
18623;SDS011;9441;51.420;7.036;2024-03-17T03:41:05;14.87;;;6.93;;
18623;SDS011;9441;51.420;7.036;2024-03-17T03:42:07;15.07;;;6.70;;
18623;SDS011;9441;51.420;7.036;2024-03-17T03:43:08;12.90;;;6.47;;
18623;SDS011;9441;51.420;7.036;2024-03-17T03:44:10;17.10;;;7.20;;
18623;SDS011;9441;51.420;7.036;2024-03-17T03:45:11;16.43;;;6.80;;
18623;SDS011;9441;51.420;7.036;2024-03-17T03:46:12;15.07;;;6.43;;
18623;SDS011;9441;51.420;7.036;2024-03-17T03:47:15;13.07;;;6.73;;
18623;SDS011;9441;51.420;7.036;2024-03-17T03:48:16;13.60;;;6.80;;
18623;SDS011;9441;51.420;7.036;2024-03-17T03:49:18;15.77;;;6.83;;
18623;SDS011;9441;51.420;7.036;2024-03-17T03:50:21;16.00;;;7.07;;
18623;SDS011;9441;51.420;7.036;2024-03-17T03:51:23;20.17;;;7.40;;
18623;SDS011;9441;51.420;7.036;2024-03-17T03:52:25;13.90;;;7.00;;
18623;SDS011;9441;51.420;7.036;2024-03-17T03:53:26;15.43;;;7.17;;
18623;SDS011;9441;51.420;7.036;2024-03-17T03:54:27;18.23;;;7.37;;
18623;SDS011;9441;51.420;7.036;2024-03-17T03:55:30;14.27;;;7.07;;
18623;SDS011;9441;51.420;7.036;2024-03-17T03:56:31;14.20;;;7.27;;
18623;SDS011;9441;51.420;7.036;2024-03-17T03:57:32;14.63;;;7.17;;
18623;SDS011;9441;51.420;7.036;2024-03-17T03:58:34;15.70;;;7.53;;
18623;SDS011;9441;51.420;7.036;2024-03-17T03:59:36;14.33;;;7.23;;
18623;SDS011;9441;51.420;7.036;2024-03-17T04:00:38;19.87;;;7.73;;
18623;SDS011;9441;51.420;7.036;2024-03-17T04:01:39;15.63;;;6.97;;
18623;SDS011;9441;51.420;7.036;2024-03-17T04:02:42;16.70;;;7.63;;
18623;SDS011;9441;51.420;7.036;2024-03-17T04:03:43;19.23;;;7.70;;
18623;SDS011;9441;51.420;7.036;2024-03-17T04:04:45;19.23;;;7.20;;
18623;SDS011;9441;51.420;7.036;2024-03-17T04:05:46;15.80;;;7.23;;
18623;SDS011;9441;51.420;7.036;2024-03-17T04:06:48;15.97;;;7.10;;
18623;SDS011;9441;51.420;7.036;2024-03-17T04:07:49;20.60;;;7.27;;
18623;SDS011;9441;51.420;7.036;2024-03-17T04:08:50;16.93;;;7.13;;
18623;SDS011;9441;51.420;7.036;2024-03-17T04:09:53;18.50;;;6.93;;
18623;SDS011;9441;51.420;7.036;2024-03-17T04:10:55;14.37;;;6.67;;
18623;SDS011;9441;51.420;7.036;2024-03-17T04:11:56;18.17;;;7.23;;
18623;SDS011;9441;51.420;7.036;2024-03-17T04:12:58;14.07;;;6.63;;
18623;SDS011;9441;51.420;7.036;2024-03-17T04:13:59;19.93;;;7.33;;
18623;SDS011;9441;51.420;7.036;2024-03-17T04:15:02;16.93;;;7.40;;
18623;SDS011;9441;51.420;7.036;2024-03-17T04:16:04;17.07;;;7.57;;
18623;SDS011;9441;51.420;7.036;2024-03-17T04:17:06;18.20;;;7.80;;
18623;SDS011;9441;51.420;7.036;2024-03-17T04:18:08;15.43;;;7.20;;
18623;SDS011;9441;51.420;7.036;2024-03-17T04:19:09;19.67;;;7.77;;
18623;SDS011;9441;51.420;7.036;2024-03-17T04:20:11;18.20;;;8.13;;
18623;SDS011;9441;51.420;7.036;2024-03-17T04:21:14;20.30;;;8.17;;
18623;SDS011;9441;51.420;7.036;2024-03-17T04:22:16;16.30;;;8.13;;
18623;SDS011;9441;51.420;7.036;2024-03-17T04:23:18;21.40;;;8.37;;
18623;SDS011;9441;51.420;7.036;2024-03-17T04:24:19;17.90;;;8.20;;
18623;SDS011;9441;51.420;7.036;2024-03-17T04:25:22;16.57;;;8.10;;
18623;SDS011;9441;51.420;7.036;2024-03-17T04:26:24;20.53;;;8.37;;
18623;SDS011;9441;51.420;7.036;2024-03-17T04:27:26;24.07;;;8.73;;
18623;SDS011;9441;51.420;7.036;2024-03-17T04:28:28;22.13;;;8.67;;
18623;SDS011;9441;51.420;7.036;2024-03-17T04:29:29;15.77;;;8.10;;
18623;SDS011;9441;51.420;7.036;2024-03-17T04:30:31;20.57;;;8.17;;
18623;SDS011;9441;51.420;7.036;2024-03-17T04:31:33;19.57;;;9.17;;
18623;SDS011;9441;51.420;7.036;2024-03-17T04:32:35;14.83;;;7.37;;
18623;SDS011;9441;51.420;7.036;2024-03-17T04:33:36;17.20;;;8.40;;
18623;SDS011;9441;51.420;7.036;2024-03-17T04:34:37;18.73;;;8.70;;
18623;SDS011;9441;51.420;7.036;2024-03-17T04:35:40;20.70;;;8.77;;
18623;SDS011;9441;51.420;7.036;2024-03-17T04:36:41;17.67;;;8.20;;
18623;SDS011;9441;51.420;7.036;2024-03-17T04:37:43;24.27;;;8.53;;
18623;SDS011;9441;51.420;7.036;2024-03-17T04:38:44;21.80;;;9.13;;
18623;SDS011;9441;51.420;7.036;2024-03-17T04:39:46;17.43;;;8.47;;
18623;SDS011;9441;51.420;7.036;2024-03-17T04:40:48;20.03;;;9.17;;
18623;SDS011;9441;51.420;7.036;2024-03-17T04:41:50;26.27;;;9.27;;
18623;SDS011;9441;51.420;7.036;2024-03-17T04:42:53;21.03;;;9.23;;
18623;SDS011;9441;51.420;7.036;2024-03-17T04:43:55;18.63;;;8.73;;
18623;SDS011;9441;51.420;7.036;2024-03-17T04:44:57;16.90;;;8.70;;
18623;SDS011;9441;51.420;7.036;2024-03-17T04:46:01;19.60;;;9.70;;
18623;SDS011;9441;51.420;7.036;2024-03-17T04:47:04;19.17;;;8.93;;
18623;SDS011;9441;51.420;7.036;2024-03-17T04:48:07;24.53;;;9.63;;
18623;SDS011;9441;51.420;7.036;2024-03-17T04:49:08;19.50;;;9.07;;
18623;SDS011;9441;51.420;7.036;2024-03-17T04:50:10;18.90;;;8.53;;
18623;SDS011;9441;51.420;7.036;2024-03-17T04:51:14;17.50;;;8.53;;
18623;SDS011;9441;51.420;7.036;2024-03-17T04:52:17;20.43;;;9.20;;
18623;SDS011;9441;51.420;7.036;2024-03-17T04:53:18;21.40;;;8.97;;
18623;SDS011;9441;51.420;7.036;2024-03-17T04:54:19;24.53;;;9.37;;
18623;SDS011;9441;51.420;7.036;2024-03-17T04:55:21;20.60;;;8.67;;
18623;SDS011;9441;51.420;7.036;2024-03-17T04:56:22;18.83;;;8.10;;
18623;SDS011;9441;51.420;7.036;2024-03-17T04:57:25;19.37;;;8.63;;
18623;SDS011;9441;51.420;7.036;2024-03-17T04:58:27;17.87;;;9.10;;
18623;SDS011;9441;51.420;7.036;2024-03-17T04:59:29;15.27;;;8.07;;
18623;SDS011;9441;51.420;7.036;2024-03-17T05:00:30;17.83;;;8.27;;
18623;SDS011;9441;51.420;7.036;2024-03-17T05:01:32;17.07;;;8.10;;
18623;SDS011;9441;51.420;7.036;2024-03-17T05:02:36;15.60;;;8.07;;
18623;SDS011;9441;51.420;7.036;2024-03-17T05:03:38;18.23;;;8.30;;
18623;SDS011;9441;51.420;7.036;2024-03-17T05:04:40;17.43;;;8.30;;
18623;SDS011;9441;51.420;7.036;2024-03-17T05:05:42;16.33;;;8.37;;
18623;SDS011;9441;51.420;7.036;2024-03-17T05:06:43;19.57;;;9.03;;
18623;SDS011;9441;51.420;7.036;2024-03-17T05:07:46;15.47;;;8.40;;
18623;SDS011;9441;51.420;7.036;2024-03-17T05:08:50;19.73;;;9.13;;
18623;SDS011;9441;51.420;7.036;2024-03-17T05:09:51;16.10;;;8.37;;
18623;SDS011;9441;51.420;7.036;2024-03-17T05:10:55;18.20;;;8.60;;
18623;SDS011;9441;51.420;7.036;2024-03-17T05:11:57;18.00;;;8.67;;
18623;SDS011;9441;51.420;7.036;2024-03-17T05:13:00;22.17;;;9.23;;
18623;SDS011;9441;51.420;7.036;2024-03-17T05:14:02;15.73;;;8.50;;
18623;SDS011;9441;51.420;7.036;2024-03-17T05:15:05;22.20;;;9.17;;
18623;SDS011;9441;51.420;7.036;2024-03-17T05:16:07;17.13;;;8.50;;
18623;SDS011;9441;51.420;7.036;2024-03-17T05:17:09;19.57;;;8.30;;
18623;SDS011;9441;51.420;7.036;2024-03-17T05:18:10;22.13;;;9.23;;
18623;SDS011;9441;51.420;7.036;2024-03-17T05:19:12;26.10;;;8.83;;
18623;SDS011;9441;51.420;7.036;2024-03-17T05:20:13;20.63;;;8.63;;
18623;SDS011;9441;51.420;7.036;2024-03-17T05:21:15;18.03;;;8.70;;
18623;SDS011;9441;51.420;7.036;2024-03-17T05:22:16;16.83;;;9.00;;
18623;SDS011;9441;51.420;7.036;2024-03-17T05:23:18;17.63;;;8.60;;
18623;SDS011;9441;51.420;7.036;2024-03-17T05:24:19;21.90;;;8.97;;
18623;SDS011;9441;51.420;7.036;2024-03-17T05:25:21;18.07;;;8.70;;
18623;SDS011;9441;51.420;7.036;2024-03-17T05:26:22;22.70;;;9.37;;
18623;SDS011;9441;51.420;7.036;2024-03-17T05:27:24;18.43;;;8.77;;
18623;SDS011;9441;51.420;7.036;2024-03-17T05:28:28;22.07;;;8.97;;
18623;SDS011;9441;51.420;7.036;2024-03-17T05:29:30;21.90;;;9.07;;
18623;SDS011;9441;51.420;7.036;2024-03-17T05:30:31;24.70;;;9.30;;
18623;SDS011;9441;51.420;7.036;2024-03-17T05:31:32;17.67;;;9.20;;
18623;SDS011;9441;51.420;7.036;2024-03-17T05:32:34;21.93;;;9.13;;
18623;SDS011;9441;51.420;7.036;2024-03-17T05:33:36;21.77;;;8.70;;
18623;SDS011;9441;51.420;7.036;2024-03-17T05:34:37;18.83;;;8.90;;
18623;SDS011;9441;51.420;7.036;2024-03-17T05:35:39;21.93;;;9.27;;
18623;SDS011;9441;51.420;7.036;2024-03-17T05:36:40;21.53;;;8.93;;
18623;SDS011;9441;51.420;7.036;2024-03-17T05:37:42;24.17;;;9.03;;
18623;SDS011;9441;51.420;7.036;2024-03-17T05:38:43;19.27;;;8.70;;
18623;SDS011;9441;51.420;7.036;2024-03-17T05:39:45;18.67;;;9.27;;
18623;SDS011;9441;51.420;7.036;2024-03-17T05:40:56;20.47;;;8.87;;
18623;SDS011;9441;51.420;7.036;2024-03-17T05:42:00;22.83;;;9.27;;
18623;SDS011;9441;51.420;7.036;2024-03-17T05:43:03;20.00;;;8.37;;
18623;SDS011;9441;51.420;7.036;2024-03-17T05:44:06;19.90;;;9.30;;
18623;SDS011;9441;51.420;7.036;2024-03-17T05:45:08;16.67;;;8.90;;
18623;SDS011;9441;51.420;7.036;2024-03-17T05:46:11;25.10;;;9.00;;
18623;SDS011;9441;51.420;7.036;2024-03-17T05:47:14;16.73;;;8.57;;
18623;SDS011;9441;51.420;7.036;2024-03-17T05:48:15;19.27;;;9.17;;
18623;SDS011;9441;51.420;7.036;2024-03-17T05:49:16;23.67;;;9.10;;
18623;SDS011;9441;51.420;7.036;2024-03-17T05:50:19;21.63;;;8.80;;
18623;SDS011;9441;51.420;7.036;2024-03-17T05:51:20;19.60;;;9.33;;
18623;SDS011;9441;51.420;7.036;2024-03-17T05:52:26;19.90;;;9.67;;
18623;SDS011;9441;51.420;7.036;2024-03-17T05:53:27;18.80;;;8.90;;
18623;SDS011;9441;51.420;7.036;2024-03-17T05:54:28;22.30;;;9.00;;
18623;SDS011;9441;51.420;7.036;2024-03-17T05:55:30;18.30;;;9.17;;
18623;SDS011;9441;51.420;7.036;2024-03-17T05:56:31;17.90;;;8.70;;
18623;SDS011;9441;51.420;7.036;2024-03-17T05:57:33;17.00;;;8.40;;
18623;SDS011;9441;51.420;7.036;2024-03-17T05:58:34;24.57;;;8.40;;
18623;SDS011;9441;51.420;7.036;2024-03-17T05:59:37;20.90;;;9.00;;
18623;SDS011;9441;51.420;7.036;2024-03-17T06:00:38;24.83;;;8.73;;
18623;SDS011;9441;51.420;7.036;2024-03-17T06:01:41;21.07;;;8.37;;
18623;SDS011;9441;51.420;7.036;2024-03-17T06:02:42;15.33;;;8.90;;
18623;SDS011;9441;51.420;7.036;2024-03-17T06:03:46;21.60;;;8.67;;
18623;SDS011;9441;51.420;7.036;2024-03-17T06:04:47;18.07;;;8.13;;
18623;SDS011;9441;51.420;7.036;2024-03-17T06:05:48;18.70;;;8.07;;
18623;SDS011;9441;51.420;7.036;2024-03-17T06:06:50;19.77;;;8.60;;
18623;SDS011;9441;51.420;7.036;2024-03-17T06:07:53;19.60;;;7.83;;
18623;SDS011;9441;51.420;7.036;2024-03-17T06:08:54;16.80;;;8.57;;
18623;SDS011;9441;51.420;7.036;2024-03-17T06:09:56;18.97;;;8.23;;
18623;SDS011;9441;51.420;7.036;2024-03-17T06:10:57;25.50;;;9.03;;
18623;SDS011;9441;51.420;7.036;2024-03-17T06:12:00;19.17;;;8.30;;
18623;SDS011;9441;51.420;7.036;2024-03-17T06:13:01;14.20;;;7.60;;
18623;SDS011;9441;51.420;7.036;2024-03-17T06:14:03;18.53;;;7.70;;
18623;SDS011;9441;51.420;7.036;2024-03-17T06:15:11;18.63;;;7.40;;
18623;SDS011;9441;51.420;7.036;2024-03-17T06:16:13;15.17;;;7.70;;